Time;durP1;ratioP1;P1;durP2;ratioP2;P2;SDS_P1;SDS_P2;PMS_P1;PMS_P2;Temp;Humidity;BMP_temperature;BMP_pressure;BME280_temperature;BME280_humidity;BME280_pressure;Samples;Min_cycle;Max_cycle;Signal;HPM_P1;HPM_P2
2024/04/10 00:02:01;;;;;;;4.27;1.20;;;12.20;97.00;;;;;;5416476;26;20574;-60
2024/04/10 00:04:29;;;;;;;1.80;0.93;;;12.20;97.00;;;;;;5416483;26;20755;-60
2024/04/10 00:06:55;;;;;;;3.33;0.97;;;12.10;97.00;;;;;;5416927;26;20603;-60
2024/04/10 00:09:23;;;;;;;2.43;1.10;;;12.20;97.10;;;;;;5445543;21;21678;-59
2024/04/10 00:11:49;;;;;;;2.40;1.00;;;12.10;97.10;;;;;;5437962;26;20303;-59
2024/04/10 00:14:17;;;;;;;2.07;1.07;;;12.10;97.20;;;;;;5452499;26;20234;-59
2024/04/10 00:16:46;;;;;;;4.07;1.10;;;12.10;97.30;;;;;;5452350;26;20234;-60
2024/04/10 00:19:14;;;;;;;2.13;1.00;;;12.00;97.30;;;;;;5452048;26;20238;-61
2024/04/10 00:21:43;;;;;;;2.97;0.90;;;12.00;97.50;;;;;;5452411;26;20337;-59
2024/04/10 00:24:12;;;;;;;2.27;1.20;;;11.90;97.60;;;;;;5452486;26;20234;-58
2024/04/10 00:26:37;;;;;;;4.40;1.20;;;11.80;97.70;;;;;;5452544;26;20268;-59
2024/04/10 00:29:06;;;;;;;1.27;0.73;;;11.80;97.80;;;;;;5452237;26;20230;-59
2024/04/10 00:31:32;;;;;;;4.73;1.33;;;11.70;97.80;;;;;;5452634;26;20230;-58
2024/04/10 00:34:02;;;;;;;2.50;1.10;;;11.60;97.90;;;;;;5452856;26;20289;-58
2024/04/10 00:36:28;;;;;;;5.10;1.30;;;11.60;97.90;;;;;;5452481;26;20230;-58
2024/04/10 00:38:57;;;;;;;4.30;1.30;;;11.50;98.10;;;;;;5452229;26;20277;-59
2024/04/10 00:41:22;;;;;;;2.37;1.07;;;11.40;98.20;;;;;;5452161;26;20276;-59
2024/04/10 00:43:51;;;;;;;2.30;1.30;;;11.40;98.30;;;;;;5437442;26;20234;-59
2024/04/10 00:46:19;;;;;;;2.30;0.93;;;11.40;98.40;;;;;;5452257;26;20268;-59
2024/04/10 00:48:48;;;;;;;2.00;0.90;;;11.40;98.70;;;;;;5451595;26;21131;-59
2024/04/10 00:51:19;;;;;;;2.97;1.10;;;11.30;98.80;;;;;;5452418;26;20238;-59
2024/04/10 00:53:48;;;;;;;3.57;1.03;;;11.30;99.00;;;;;;5451964;26;20234;-59
2024/04/10 00:56:15;;;;;;;4.40;1.40;;;11.20;99.20;;;;;;5452274;26;20280;-61
2024/04/10 00:58:44;;;;;;;2.37;1.10;;;11.10;99.40;;;;;;5451824;26;20234;-59
2024/04/10 01:01:12;;;;;;;1.90;0.93;;;11.10;99.40;;;;;;5452112;26;20727;-58
2024/04/10 01:03:41;;;;;;;2.00;1.00;;;11.00;99.50;;;;;;5452203;26;20226;-59
2024/04/10 01:06:09;;;;;;;1.77;0.83;;;11.00;99.50;;;;;;5452378;26;20264;-58
2024/04/10 01:08:41;;;;;;;3.07;1.17;;;11.00;99.60;;;;;;5451897;26;20457;-59
2024/04/10 01:11:08;;;;;;;2.73;0.90;;;11.00;99.50;;;;;;5451691;26;20233;-59
2024/04/10 01:13:37;;;;;;;4.07;1.10;;;11.10;99.60;;;;;;5451725;26;20334;-58
2024/04/10 01:16:04;;;;;;;3.37;1.20;;;11.00;99.50;;;;;;5451928;26;20319;-59
2024/04/10 01:18:32;;;;;;;3.43;1.13;;;11.10;99.50;;;;;;5451836;26;20276;-58
2024/04/10 01:20:58;;;;;;;1.87;1.10;;;11.00;99.40;;;;;;5451982;26;20283;-58
2024/04/10 01:23:29;;;;;;;1.47;0.80;;;11.00;99.40;;;;;;5452054;26;20229;-58
2024/04/10 01:25:55;;;;;;;3.47;1.00;;;11.00;99.60;;;;;;5438435;26;20711;-61
2024/04/10 01:28:23;;;;;;;4.07;1.30;;;10.90;99.80;;;;;;5451888;26;20230;-60
2024/04/10 01:30:49;;;;;;;3.80;0.97;;;10.90;99.80;;;;;;5451993;26;20233;-58
2024/04/10 01:33:17;;;;;;;5.13;1.70;;;10.90;99.80;;;;;;5452326;26;20811;-59
2024/04/10 01:35:43;;;;;;;2.57;1.00;;;10.80;99.90;;;;;;5452236;26;20715;-58
2024/04/10 01:38:11;;;;;;;4.13;1.73;;;10.80;99.90;;;;;;5452699;26;20277;-60
2024/04/10 01:40:40;;;;;;;2.60;1.10;;;10.90;99.90;;;;;;5451482;26;20238;-59
2024/04/10 01:43:08;;;;;;;2.63;1.20;;;10.90;99.90;;;;;;5451716;26;20723;-59
2024/04/10 01:45:36;;;;;;;3.43;1.00;;;11.00;99.90;;;;;;5451656;26;20314;-59
2024/04/10 01:48:05;;;;;;;4.60;1.87;;;11.10;99.90;;;;;;5451954;26;20272;-58
2024/04/10 01:50:31;;;;;;;3.40;1.23;;;11.20;99.70;;;;;;5451266;26;20581;-60
2024/04/10 01:52:59;;;;;;;2.17;1.10;;;11.30;99.70;;;;;;5451536;26;20276;-59
2024/04/10 01:55:25;;;;;;;2.87;1.00;;;11.30;99.60;;;;;;5451183;26;20728;-58
2024/04/10 01:57:56;;;;;;;1.53;0.80;;;11.30;99.50;;;;;;5451873;26;20307;-60
2024/04/10 02:00:24;;;;;;;2.73;1.20;;;11.30;99.50;;;;;;5451303;26;20234;-59
2024/04/10 02:02:53;;;;;;;1.90;1.10;;;11.30;99.50;;;;;;5436457;26;20281;-60
2024/04/10 02:05:19;;;;;;;2.87;1.30;;;11.40;99.40;;;;;;5450473;26;20230;-59
2024/04/10 02:07:47;;;;;;;2.47;1.10;;;11.40;99.20;;;;;;5451010;26;20604;-60
2024/04/10 02:10:13;;;;;;;2.90;0.90;;;11.40;99.00;;;;;;5450706;26;20276;-58
2024/04/10 02:12:41;;;;;;;1.77;1.00;;;11.40;98.90;;;;;;5450863;26;20572;-59
2024/04/10 02:15:09;;;;;;;3.07;0.97;;;11.40;98.90;;;;;;5451277;26;20229;-58
2024/04/10 02:17:38;;;;;;;4.80;1.53;;;11.40;98.70;;;;;;5450804;26;20233;-59
2024/04/10 02:20:05;;;;;;;1.77;1.00;;;11.40;98.70;;;;;;5450369;26;20233;-59
2024/04/10 02:22:34;;;;;;;8.00;1.13;;;11.40;98.10;;;;;;5450834;26;20237;-58
2024/04/10 02:25:00;;;;;;;5.10;1.47;;;11.40;98.10;;;;;;5450994;26;20239;-59
2024/04/10 02:27:28;;;;;;;2.13;0.97;;;11.40;98.10;;;;;;5450828;26;20234;-58
2024/04/10 02:29:54;;;;;;;5.83;1.33;;;11.30;98.10;;;;;;5436217;26;20272;-59
2024/04/10 02:32:24;;;;;;;4.93;1.30;;;11.30;98.20;;;;;;5450424;26;20242;-59
2024/04/10 02:34:50;;;;;;;2.77;1.07;;;11.20;98.60;;;;;;5450524;26;20738;-59
2024/04/10 02:37:18;;;;;;;3.20;1.10;;;11.20;98.60;;;;;;5450495;26;20234;-59
2024/04/10 02:39:44;;;;;;;4.57;1.80;;;11.20;98.60;;;;;;5449827;26;20233;-59
2024/04/10 02:42:13;;;;;;;3.50;1.43;;;11.10;98.70;;;;;;5450313;26;20265;-59
2024/04/10 02:44:39;;;;;;;2.90;1.40;;;11.10;98.80;;;;;;5450295;26;20268;-58
2024/04/10 02:47:08;;;;;;;5.50;1.07;;;11.00;98.90;;;;;;5450360;26;20553;-59
2024/04/10 02:49:36;;;;;;;2.40;1.43;;;10.90;99.30;;;;;;5449956;26;20727;-59
2024/04/10 02:52:06;;;;;;;2.23;1.13;;;10.90;99.60;;;;;;5450065;26;20265;-59
2024/04/10 02:54:31;;;;;;;3.57;1.13;;;10.80;99.60;;;;;;5449956;26;20268;-58
2024/04/10 02:57:00;;;;;;;3.87;1.20;;;10.80;99.60;;;;;;5450028;26;20234;-58
2024/04/10 02:59:26;;;;;;;4.10;1.30;;;10.80;99.90;;;;;;5449793;26;20234;-57
2024/04/10 03:01:54;;;;;;;3.50;1.13;;;10.70;99.90;;;;;;5449897;26;20579;-57
2024/04/10 03:04:20;;;;;;;2.77;1.13;;;10.70;99.90;;;;;;5449745;26;20830;-58
2024/04/10 03:06:52;;;;;;;2.57;1.20;;;10.50;99.90;;;;;;5449679;26;20276;-57
2024/04/10 03:09:18;;;;;;;3.30;1.20;;;10.50;99.90;;;;;;5449287;26;20230;-60
2024/04/10 03:11:46;;;;;;;2.87;1.13;;;10.40;99.90;;;;;;5449790;26;20731;-59
2024/04/10 03:14:12;;;;;;;3.23;1.40;;;10.40;99.90;;;;;;5449871;26;20230;-59
2024/04/10 03:16:41;;;;;;;2.30;1.20;;;10.30;99.90;;;;;;5453032;26;20293;-59
2024/04/10 03:19:06;;;;;;;4.73;1.70;;;10.30;99.90;;;;;;5453075;26;20607;-58
2024/04/10 03:21:35;;;;;;;3.30;1.33;;;10.30;99.90;;;;;;5453201;26;20246;-58
2024/04/10 03:24:06;;;;;;;3.27;1.40;;;10.30;99.90;;;;;;5453191;26;20230;-59
2024/04/10 03:26:35;;;;;;;4.30;1.30;;;10.30;99.90;;;;;;5453355;26;20276;-59
2024/04/10 03:29:01;;;;;;;5.70;1.40;;;10.30;99.90;;;;;;5452917;26;20226;-59
2024/04/10 03:31:29;;;;;;;2.07;1.20;;;10.30;99.90;;;;;;5453797;26;20264;-59
2024/04/10 03:33:55;;;;;;;2.93;1.20;;;10.20;99.90;;;;;;5439086;26;20230;-58
2024/04/10 03:36:24;;;;;;;2.67;1.23;;;10.20;99.90;;;;;;5453060;26;20284;-59
2024/04/10 03:38:51;;;;;;;2.73;1.20;;;10.20;99.90;;;;;;5452717;26;20233;-59
2024/04/10 03:41:22;;;;;;;4.50;1.40;;;10.20;99.90;;;;;;5453000;26;20305;-60
2024/04/10 03:43:50;;;;;;;5.10;1.23;;;10.20;99.90;;;;;;5452596;26;20277;-58
2024/04/10 03:46:19;;;;;;;2.67;1.20;;;10.20;99.90;;;;;;5453097;26;20716;-59
2024/04/10 03:48:48;;;;;;;3.63;1.13;;;10.20;99.90;;;;;;5452615;26;20726;-59
2024/04/10 03:51:16;;;;;;;3.60;1.80;;;10.20;99.90;;;;;;5452846;26;20234;-59
2024/04/10 03:53:42;;;;;;;4.03;1.20;;;10.20;99.90;;;;;;5452645;26;20301;-59
2024/04/10 03:56:11;;;;;;;3.47;1.00;;;10.20;99.90;;;;;;5452741;26;20587;-58
2024/04/10 03:58:39;;;;;;;3.67;1.47;;;10.20;99.90;;;;;;5452486;26;20238;-59
2024/04/10 04:01:07;;;;;;;2.90;1.10;;;10.30;99.90;;;;;;5453074;26;20250;-58
2024/04/10 04:03:34;;;;;;;3.30;1.20;;;10.30;99.90;;;;;;5452125;26;20229;-59
2024/04/10 04:06:03;;;;;;;4.63;1.10;;;10.30;99.90;;;;;;5452767;26;20238;-59
2024/04/10 04:08:28;;;;;;;5.47;1.50;;;10.40;99.90;;;;;;5452406;26;20566;-59
2024/04/10 04:10:57;;;;;;;3.53;0.90;;;10.40;99.90;;;;;;5437515;26;20276;-59
2024/04/10 04:13:23;;;;;;;6.00;1.33;;;10.40;99.90;;;;;;5452496;26;20261;-59
2024/04/10 04:15:53;;;;;;;4.00;1.30;;;10.40;99.90;;;;;;5452597;26;20238;-59
2024/04/10 04:18:19;;;;;;;3.33;1.40;;;10.50;99.90;;;;;;5452635;26;20265;-59
2024/04/10 04:20:47;;;;;;;4.87;1.40;;;10.50;99.90;;;;;;5451710;26;20238;-58
2024/04/10 04:23:13;;;;;;;2.83;1.13;;;10.50;99.90;;;;;;5452039;26;20234;-59
2024/04/10 04:25:41;;;;;;;3.87;1.80;;;10.60;99.90;;;;;;5452362;26;20277;-59
2024/04/10 04:28:07;;;;;;;4.83;1.83;;;10.60;99.90;;;;;;5451385;26;20277;-58
2024/04/10 04:30:35;;;;;;;4.03;1.50;;;10.60;99.90;;;;;;5451637;26;20238;-59
2024/04/10 04:33:04;;;;;;;3.77;1.50;;;10.60;99.90;;;;;;5452367;26;20234;-57
2024/04/10 04:35:32;;;;;;;5.23;1.17;;;10.70;99.90;;;;;;5452226;26;20341;-58
2024/04/10 04:37:58;;;;;;;9.40;1.60;;;10.70;99.90;;;;;;5452787;26;20265;-59
2024/04/10 04:40:31;;;;;;;3.43;1.50;;;10.80;99.90;;;;;;5451789;26;20234;-59
2024/04/10 04:42:58;;;;;;;4.43;1.43;;;10.80;99.90;;;;;;5437842;26;20268;-60
2024/04/10 04:45:26;;;;;;;3.70;1.10;;;10.90;99.90;;;;;;5452223;26;20300;-59
2024/04/10 04:47:52;;;;;;;7.13;1.37;;;10.90;99.90;;;;;;5452172;26;20264;-58
2024/04/10 04:50:23;;;;;;;5.77;1.47;;;11.00;99.90;;;;;;5451493;26;20592;-59
2024/04/10 04:52:49;;;;;;;2.67;1.60;;;11.00;99.90;;;;;;5451850;26;20278;-59
2024/04/10 04:55:17;;;;;;;5.33;1.30;;;11.00;99.90;;;;;;5451939;26;20335;-59
2024/04/10 04:57:43;;;;;;;9.07;1.80;;;11.00;99.90;;;;;;5452083;26;20276;-59
2024/04/10 05:00:14;;;;;;;5.10;1.30;;;11.00;99.90;;;;;;5451699;26;20238;-60
2024/04/10 05:02:40;;;;;;;4.77;1.37;;;11.00;99.80;;;;;;5451801;26;20747;-59
2024/04/10 05:05:14;;;;;;;10.23;1.97;;;11.10;99.70;;;;;;5452006;26;20233;-59
2024/04/10 05:07:46;;;;;;;6.77;1.87;;;11.10;99.70;;;;;;5451653;26;20230;-59
2024/04/10 05:10:16;;;;;;;3.80;1.57;;;11.00;99.70;;;;;;5451269;26;20612;-59
2024/04/10 05:12:42;;;;;;;4.63;1.67;;;11.00;99.60;;;;;;5451612;26;20282;-59
2024/04/10 05:15:12;;;;;;;7.17;1.60;;;11.10;99.70;;;;;;5451187;26;20337;-58
2024/04/10 05:17:38;;;;;;;5.50;1.40;;;11.10;99.70;;;;;;5451388;26;20272;-59
2024/04/10 05:20:10;;;;;;;4.13;1.67;;;11.10;99.60;;;;;;5451261;26;20237;-59
2024/04/10 05:22:36;;;;;;;3.00;1.20;;;11.20;99.60;;;;;;5451562;26;20234;-59
2024/04/10 05:25:09;;;;;;;6.37;1.90;;;11.30;99.50;;;;;;5451642;26;20233;-59
2024/04/10 05:27:37;;;;;;;5.30;1.60;;;11.40;99.50;;;;;;5451412;26;20715;-59
2024/04/10 05:30:09;;;;;;;5.80;1.53;;;11.50;99.40;;;;;;5451039;26;20345;-59
2024/04/10 05:32:35;;;;;;;3.93;1.70;;;11.60;99.30;;;;;;5451400;26;20336;-60
2024/04/10 05:35:04;;;;;;;3.83;1.70;;;11.80;99.00;;;;;;5451546;26;20257;-59
2024/04/10 05:37:31;;;;;;;5.00;2.40;;;12.10;99.00;;;;;;5451655;26;20279;-59
2024/04/10 05:40:10;;;;;;;6.47;1.87;;;12.30;98.70;;;;;;5449193;26;20277;-59
2024/04/10 05:42:36;;;;;;;7.77;3.00;;;12.70;98.50;;;;;;5451059;26;20226;-59
2024/04/10 05:45:05;;;;;;;4.10;2.23;;;13.40;98.30;;;;;;5451668;26;20605;-59
2024/04/10 05:47:31;;;;;;;4.27;1.93;;;14.50;97.20;;;;;;5451286;26;20277;-59
2024/04/10 05:49:59;;;;;;;8.97;2.57;;;15.80;95.20;;;;;;5450712;26;20695;-60
2024/04/10 05:52:25;;;;;;;6.38;2.17;;;17.00;93.40;;;;;;5451022;26;20269;-58
2024/04/10 05:54:54;;;;;;;6.60;2.60;;;18.10;91.10;;;;;;5450867;26;20328;-57
2024/04/10 05:57:24;;;;;;;5.15;2.30;;;19.00;90.00;;;;;;5451164;26;20266;-59
2024/04/10 06:01:40;;;;;;;6.97;1.58;;;19.70;88.00;;;;;;5565062;25;21223;-59
2024/04/10 06:04:06;;;;;;;5.57;1.60;;;20.20;84.10;;;;;;5543729;25;20692;-60
2024/04/10 06:06:35;;;;;;;10.07;3.05;;;20.50;84.40;;;;;;5543533;25;20323;-59
2024/04/10 06:09:00;;;;;;;4.15;1.70;;;20.60;82.70;;;;;;5528398;25;20270;-59
2024/04/10 06:11:29;;;;;;;5.53;1.58;;;20.30;81.20;;;;;;5528154;25;20719;-59
2024/04/10 06:13:57;;;;;;;4.88;1.45;;;19.70;82.30;;;;;;5516421;20;20325;-58
2024/04/10 06:16:26;;;;;;;3.08;1.67;;;19.00;83.00;;;;;;5474182;26;20229;-60
2024/04/10 06:18:54;;;;;;;3.67;1.45;;;18.40;84.50;;;;;;5477923;26;20226;-59
2024/04/10 06:21:22;;;;;;;6.38;2.03;;;17.70;86.10;;;;;;5480413;26;20232;-59
2024/04/10 06:23:48;;;;;;;3.67;1.48;;;17.00;87.80;;;;;;5476599;26;20292;-60
2024/04/10 06:26:17;;;;;;;6.15;2.40;;;16.60;89.20;;;;;;5474469;26;20245;-56
2024/04/10 06:28:44;;;;;;;5.63;2.20;;;16.20;90.20;;;;;;5476488;26;20268;-63
2024/04/10 06:31:12;;;;;;;5.95;1.88;;;15.90;90.80;;;;;;5480566;26;20335;-62
2024/04/10 06:33:38;;;;;;;4.63;1.95;;;15.70;91.00;;;;;;5478850;26;20232;-63
2024/04/10 06:36:10;;;;;;;7.85;1.48;;;15.20;91.90;;;;;;5474082;26;20613;-63
2024/04/10 06:38:37;;;;;;;7.03;1.70;;;15.10;92.30;;;;;;5474196;26;20299;-64
2024/04/10 06:41:06;;;;;;;10.67;2.20;;;15.10;92.30;;;;;;5480137;26;20232;-63
2024/04/10 06:43:33;;;;;;;6.10;2.00;;;15.20;92.60;;;;;;5479919;26;20229;-62
2024/04/10 06:46:03;;;;;;;6.90;1.52;;;15.20;92.60;;;;;;5473892;26;20264;-62
2024/04/10 06:48:29;;;;;;;6.90;2.33;;;14.70;92.80;;;;;;5473391;26;20233;-56
2024/04/10 06:51:01;;;;;;;6.15;1.52;;;14.40;93.10;;;;;;5478936;26;20689;-57
2024/04/10 06:53:29;;;;;;;6.45;2.03;;;14.70;93.20;;;;;;5479646;26;20274;-57
2024/04/10 06:55:59;;;;;;;4.97;1.57;;;14.90;92.90;;;;;;5474741;26;20230;-57
2024/04/10 06:58:25;;;;;;;7.25;1.80;;;15.30;92.60;;;;;;5472859;26;20264;-56
2024/04/10 07:00:59;;;;;;;5.85;2.17;;;15.60;91.90;;;;;;5477547;26;20242;-57
2024/04/10 07:03:25;;;;;;;5.47;1.60;;;15.80;91.40;;;;;;5479739;26;20283;-57
2024/04/10 07:05:53;;;;;;;7.10;1.70;;;15.90;91.20;;;;;;5475478;26;20236;-57
2024/04/10 07:08:19;;;;;;;10.25;1.90;;;16.10;91.20;;;;;;5473515;26;20230;-57
2024/04/10 07:10:56;;;;;;;5.95;1.70;;;16.20;91.00;;;;;;5473235;26;20322;-57
2024/04/10 07:13:24;;;;;;;5.30;1.70;;;16.30;91.10;;;;;;5463429;26;20274;-57
2024/04/10 07:15:59;;;;;;;8.18;1.70;;;16.50;91.10;;;;;;5460265;26;20313;-57
2024/04/10 07:18:26;;;;;;;8.32;2.53;;;16.80;90.80;;;;;;5457265;26;20287;-57
2024/04/10 07:21:00;;;;;;;4.47;1.83;;;16.90;90.50;;;;;;5462126;26;20282;-57
2024/04/10 07:23:27;;;;;;;4.72;1.83;;;17.00;90.30;;;;;;5463870;26;20232;-56
2024/04/10 07:26:08;;;;;;;8.77;2.00;;;17.20;89.70;;;;;;5459636;26;20232;-57
2024/04/10 07:28:34;;;;;;;7.25;2.33;;;17.20;89.10;;;;;;5457135;26;20230;-57
2024/04/10 07:31:02;;;;;;;6.88;2.40;;;17.10;89.90;;;;;;5463721;26;20228;-56
2024/04/10 07:33:28;;;;;;;9.48;2.28;;;17.10;89.70;;;;;;5463546;26;20323;-56
2024/04/10 07:35:56;;;;;;;8.32;2.10;;;17.30;89.30;;;;;;5459099;26;20585;-57
2024/04/10 07:38:22;;;;;;;7.63;2.30;;;17.20;88.90;;;;;;5457702;26;20230;-57
2024/04/10 07:40:57;;;;;;;6.95;1.88;;;17.00;88.90;;;;;;5460095;26;20273;-56
2024/04/10 07:43:23;;;;;;;5.30;1.90;;;16.80;89.20;;;;;;5463710;26;20224;-57
2024/04/10 07:45:51;;;;;;;6.55;1.80;;;16.40;90.00;;;;;;5460104;26;20276;-57
2024/04/10 07:48:17;;;;;;;10.00;2.17;;;16.40;90.00;;;;;;5457704;26;20298;-60
2024/04/10 07:50:45;;;;;;;6.22;2.10;;;16.40;90.10;;;;;;5458985;26;20231;-60
2024/04/10 07:53:12;;;;;;;9.23;2.28;;;16.30;90.20;;;;;;5463628;26;20711;-57
2024/04/10 07:55:40;;;;;;;6.30;1.83;;;16.40;90.10;;;;;;5446235;26;20230;-61
2024/04/10 07:58:11;;;;;;;8.43;2.13;;;16.20;90.40;;;;;;5463421;26;20225;-59
2024/04/10 08:00:39;;;;;;;11.05;5.53;;;15.80;90.70;;;;;;5462780;26;20233;-57
2024/04/10 08:03:05;;;;;;;3.90;1.77;;;15.30;91.70;;;;;;5457816;26;20250;-58
2024/04/10 08:05:34;;;;;;;7.22;2.25;;;15.40;91.60;;;;;;5457429;26;20276;-57
2024/04/10 08:08:00;;;;;;;6.10;2.17;;;15.70;91.30;;;;;;5461463;26;20293;-56
2024/04/10 08:10:29;;;;;;;5.65;2.15;;;16.10;90.70;;;;;;5458707;25;20229;-62
2024/04/10 08:12:54;;;;;;;5.97;2.22;;;16.10;91.00;;;;;;5493819;26;20271;-59
2024/04/10 08:15:26;;;;;;;11.82;4.20;;;15.90;91.10;;;;;;5477923;26;20714;-60
2024/04/10 08:17:51;;;;;;;8.48;2.25;;;16.00;90.90;;;;;;5477395;26;20229;-60
2024/04/10 08:20:20;;;;;;;7.35;2.00;;;16.00;91.20;;;;;;5477486;26;20320;-62
2024/04/10 08:22:46;;;;;;;7.88;2.10;;;16.20;91.00;;;;;;5477346;26;20761;-58
2024/04/10 08:25:14;;;;;;;7.10;2.28;;;16.30;90.80;;;;;;5477369;26;20233;-59
2024/04/10 08:27:40;;;;;;;5.93;1.85;;;16.50;90.70;;;;;;5476917;26;20232;-58
2024/04/10 08:30:09;;;;;;;6.15;2.00;;;16.50;90.60;;;;;;5477067;26;20283;-58
2024/04/10 08:32:38;;;;;;;9.77;2.05;;;16.30;90.60;;;;;;5477381;26;20280;-58
2024/04/10 08:35:07;;;;;;;7.57;2.08;;;16.40;90.60;;;;;;5475807;26;20272;-58
2024/04/10 08:37:33;;;;;;;9.85;2.20;;;16.30;90.80;;;;;;5469086;26;20259;-57
2024/04/10 08:40:02;;;;;;;7.22;1.90;;;16.30;90.70;;;;;;5471499;26;20282;-56
2024/04/10 08:42:28;;;;;;;11.60;2.03;;;16.30;90.50;;;;;;5468682;26;20368;-57
2024/04/10 08:44:58;;;;;;;10.93;3.17;;;16.30;90.70;;;;;;5477473;26;20264;-57
2024/04/10 08:47:25;;;;;;;7.28;2.50;;;16.30;90.70;;;;;;5477550;26;20228;-57
2024/04/10 08:49:56;;;;;;;7.15;2.45;;;16.10;90.70;;;;;;5475857;26;20324;-57
2024/04/10 08:52:23;;;;;;;6.65;2.00;;;16.10;90.50;;;;;;5476894;26;20233;-57
2024/04/10 08:54:52;;;;;;;8.18;2.20;;;16.30;90.30;;;;;;5476840;26;20272;-57
2024/04/10 08:57:18;;;;;;;6.43;2.28;;;16.50;89.70;;;;;;5476446;26;20264;-57
2024/04/10 08:59:46;;;;;;;5.78;1.95;;;16.60;89.00;;;;;;5476503;26;20241;-57
2024/04/10 09:02:12;;;;;;;9.25;2.38;;;16.60;89.50;;;;;;5476482;26;20233;-57
2024/04/10 09:04:45;;;;;;;6.50;2.10;;;16.60;88.50;;;;;;5476871;26;20272;-56
2024/04/10 09:07:18;;;;;;;6.90;1.90;;;16.70;88.60;;;;;;5477240;26;20349;-57
2024/04/10 09:09:49;;;;;;;10.70;2.67;;;16.70;87.70;;;;;;5476403;26;20264;-58
2024/04/10 09:12:21;;;;;;;6.35;2.28;;;16.50;88.20;;;;;;5476813;26;20264;-57
2024/04/10 09:14:50;;;;;;;7.55;1.88;;;16.30;89.00;;;;;;5477012;26;20326;-56
2024/04/10 09:17:17;;;;;;;6.03;1.70;;;15.90;90.00;;;;;;5476969;26;20271;-56
2024/04/10 09:19:45;;;;;;;8.83;2.20;;;15.70;90.10;;;;;;5476407;26;20734;-57
2024/04/10 09:22:14;;;;;;;8.90;2.15;;;15.40;90.00;;;;;;5476907;26;20233;-56
2024/04/10 09:24:42;;;;;;;8.20;1.85;;;15.00;90.60;;;;;;5476283;26;20710;-57
2024/04/10 09:27:10;;;;;;;8.82;1.80;;;14.90;90.50;;;;;;5476982;26;20702;-57
2024/04/10 09:29:38;;;;;;;8.03;2.27;;;14.80;90.90;;;;;;5476236;26;20237;-58
2024/04/10 09:32:10;;;;;;;11.20;2.00;;;15.10;90.90;;;;;;5461548;26;20267;-57
2024/04/10 09:34:39;;;;;;;4.97;1.87;;;15.40;90.20;;;;;;5475828;26;20229;-58
2024/04/10 09:37:05;;;;;;;7.72;1.75;;;15.50;87.60;;;;;;5461234;26;20274;-57
2024/04/10 09:39:37;;;;;;;8.90;1.87;;;15.30;88.60;;;;;;5475899;26;20233;-58
2024/04/10 09:42:08;;;;;;;5.50;1.93;;;15.10;89.30;;;;;;5476009;25;20229;-58
2024/04/10 09:44:39;;;;;;;6.23;2.03;;;14.70;90.10;;;;;;5476587;25;20241;-57
2024/04/10 09:47:08;;;;;;;6.10;1.90;;;14.50;90.70;;;;;;5440204;26;20824;-57
2024/04/10 09:49:43;;;;;;;7.97;2.07;;;14.50;89.70;;;;;;5468237;26;20275;-57
2024/04/10 09:52:10;;;;;;;6.13;2.10;;;14.70;89.10;;;;;;5462733;26;20233;-58
2024/04/10 09:54:42;;;;;;;6.23;2.10;;;14.90;88.50;;;;;;5476454;26;20233;-57
2024/04/10 09:57:10;;;;;;;4.97;1.80;;;15.10;87.80;;;;;;5462622;26;20722;-57
2024/04/10 09:59:38;;;;;;;5.93;1.70;;;15.40;86.30;;;;;;5475988;26;20237;-56
2024/04/10 10:02:08;;;;;;;7.00;2.33;;;15.50;86.40;;;;;;5475344;26;20229;-61
2024/04/10 10:04:39;;;;;;;8.48;1.80;;;15.90;86.70;;;;;;5456025;26;20237;-57
2024/04/10 10:07:05;;;;;;;5.70;1.80;;;16.50;85.30;;;;;;5480488;26;20236;-59
2024/04/10 10:09:34;;;;;;;7.82;1.92;;;17.00;83.40;;;;;;5475623;26;20236;-59
2024/04/10 10:12:03;;;;;;;5.53;1.45;;;17.30;82.60;;;;;;5475187;26;20729;-59
2024/04/10 10:14:32;;;;;;;9.63;1.98;;;17.70;81.10;;;;;;5475419;26;20272;-58
2024/04/10 10:17:06;;;;;;;7.45;2.00;;;18.20;80.20;;;;;;5475744;26;20737;-58
2024/04/10 10:19:36;;;;;;;6.07;1.70;;;18.60;77.30;;;;;;5475531;26;20229;-59
2024/04/10 10:22:02;;;;;;;6.90;1.67;;;18.30;76.90;;;;;;5475610;26;20225;-59
2024/04/10 10:24:31;;;;;;;9.07;4.28;;;17.60;78.40;;;;;;5475780;26;20233;-59
2024/04/10 10:26:58;;;;;;;8.15;1.85;;;17.30;80.50;;;;;;5475574;26;20268;-59
2024/04/10 10:29:30;;;;;;;4.30;1.80;;;17.30;80.60;;;;;;5475602;26;20571;-59
2024/04/10 10:32:03;;;;;;;8.80;1.73;;;17.00;80.50;;;;;;5475437;26;20287;-58
2024/04/10 10:34:31;;;;;;;4.78;1.30;;;16.40;79.80;;;;;;5454356;26;20402;-58
2024/04/10 10:37:02;;;;;;;3.65;1.35;;;16.10;79.00;;;;;;5473277;26;20229;-58
2024/04/10 10:39:30;;;;;;;5.60;1.50;;;15.60;80.50;;;;;;5459525;26;20732;-58
2024/04/10 10:41:59;;;;;;;5.63;1.77;;;15.30;81.00;;;;;;5464808;26;20714;-57
2024/04/10 10:44:31;;;;;;;7.28;1.90;;;15.40;81.50;;;;;;5464298;26;20663;-59
2024/04/10 10:46:57;;;;;;;5.63;2.05;;;15.60;80.80;;;;;;5446369;26;20230;-59
2024/04/10 10:49:26;;;;;;;3.77;1.70;;;15.80;79.50;;;;;;5468128;26;20234;-59
2024/04/10 10:51:53;;;;;;;4.07;1.48;;;16.00;79.60;;;;;;5478287;26;20244;-59
2024/04/10 10:54:21;;;;;;;4.93;1.80;;;16.20;78.20;;;;;;5477951;26;20325;-59
2024/04/10 10:56:47;;;;;;;4.78;1.70;;;16.40;77.10;;;;;;5478809;26;20229;-57
2024/04/10 10:59:15;;;;;;;5.72;2.17;;;16.70;77.50;;;;;;5478620;26;20233;-59
2024/04/10 11:01:44;;;;;;;7.07;2.15;;;17.00;79.90;;;;;;5477594;26;20635;-61
2024/04/10 11:04:15;;;;;;;5.22;1.85;;;17.40;79.40;;;;;;5472029;26;20238;-59
2024/04/10 11:06:42;;;;;;;6.15;2.20;;;17.70;78.60;;;;;;5457623;26;20229;-59
2024/04/10 11:09:12;;;;;;;7.68;2.00;;;18.10;77.90;;;;;;5457211;26;20234;-59
2024/04/10 11:11:38;;;;;;;7.72;1.77;;;18.10;77.10;;;;;;5457776;26;20246;-59
2024/04/10 11:14:07;;;;;;;5.40;2.00;;;17.90;77.30;;;;;;5462671;26;20308;-59
2024/04/10 11:16:33;;;;;;;5.15;1.98;;;17.70;78.30;;;;;;5463690;26;20277;-58
2024/04/10 11:19:04;;;;;;;5.38;1.83;;;17.70;77.80;;;;;;5459468;26;20237;-59
2024/04/10 11:21:30;;;;;;;6.55;1.98;;;17.70;78.00;;;;;;5457774;26;20293;-57
2024/04/10 11:23:58;;;;;;;4.93;1.90;;;18.10;76.70;;;;;;5460322;26;20279;-58
2024/04/10 11:26:24;;;;;;;7.28;1.92;;;18.50;73.00;;;;;;5463716;26;20272;-59
2024/04/10 11:28:56;;;;;;;7.35;1.85;;;19.00;72.50;;;;;;5461565;26;20233;-59
2024/04/10 11:31:21;;;;;;;4.22;1.42;;;19.00;70.20;;;;;;5457912;26;20238;-59
2024/04/10 11:33:50;;;;;;;4.35;1.40;;;18.80;70.70;;;;;;5457505;26;20578;-59
2024/04/10 11:36:18;;;;;;;4.18;1.90;;;18.90;70.70;;;;;;5463646;26;20275;-58
2024/04/10 11:38:49;;;;;;;7.18;1.52;;;19.00;71.30;;;;;;5463030;26;20241;-58
2024/04/10 11:41:15;;;;;;;4.88;1.50;;;18.60;69.30;;;;;;5457551;26;20230;-58
2024/04/10 11:43:44;;;;;;;4.80;1.67;;;17.70;71.50;;;;;;5457210;26;20238;-58
2024/04/10 11:46:10;;;;;;;7.35;1.75;;;17.30;73.20;;;;;;5457263;26;20599;-59
2024/04/10 11:48:39;;;;;;;4.47;1.80;;;17.60;73.50;;;;;;5457351;26;20234;-59
2024/04/10 11:51:05;;;;;;;5.70;1.40;;;18.10;73.00;;;;;;5462807;26;20229;-59
2024/04/10 11:53:37;;;;;;;3.13;1.65;;;18.60;72.40;;;;;;5463305;26;20372;-59
2024/04/10 11:56:03;;;;;;;6.90;1.48;;;18.60;73.50;;;;;;5457889;26;20271;-58
2024/04/10 11:58:31;;;;;;;6.35;1.60;;;18.40;74.40;;;;;;5456272;26;20737;-58
2024/04/10 12:00:57;;;;;;;4.97;1.88;;;18.20;76.50;;;;;;5460214;26;20354;-58
2024/04/10 12:03:25;;;;;;;5.03;1.73;;;17.80;77.20;;;;;;5463146;26;20245;-58
2024/04/10 12:05:51;;;;;;;5.47;1.90;;;17.50;78.30;;;;;;5461176;26;20230;-58
2024/04/10 12:08:22;;;;;;;6.28;2.00;;;17.50;76.70;;;;;;5455440;26;20750;-58
2024/04/10 12:10:50;;;;;;;5.13;1.80;;;17.30;76.60;;;;;;5457043;26;20723;-58
2024/04/10 12:13:18;;;;;;;5.40;1.50;;;17.10;77.30;;;;;;5463012;26;20237;-58
2024/04/10 12:15:44;;;;;;;4.95;1.50;;;17.00;75.90;;;;;;5462982;26;20289;-59
2024/04/10 12:18:13;;;;;;;5.13;1.85;;;16.80;75.80;;;;;;5456786;26;20333;-56
2024/04/10 12:20:38;;;;;;;4.78;2.00;;;16.50;76.60;;;;;;5456539;26;20230;-55
2024/04/10 12:23:07;;;;;;;7.70;1.90;;;16.30;78.00;;;;;;5461660;26;20245;-57
2024/04/10 12:25:32;;;;;;;2.85;1.40;;;16.40;77.90;;;;;;5463004;26;20232;-57
2024/04/10 12:28:03;;;;;;;5.78;1.77;;;16.70;77.50;;;;;;5459332;26;20667;-56
2024/04/10 12:30:29;;;;;;;4.80;1.73;;;16.60;75.70;;;;;;5456055;26;20304;-56
2024/04/10 12:32:57;;;;;;;4.47;1.60;;;16.50;76.40;;;;;;5459208;26;20237;-61
2024/04/10 12:38:12;;;;;;;4.97;2.03;;;16.60;75.60;;;;;;5460097;26;20272;-59
2024/04/10 12:40:40;;;;;;;3.65;1.50;;;16.50;76.10;;;;;;5456011;26;20286;-56
2024/04/10 12:43:11;;;;;;;5.43;1.80;;;16.40;76.50;;;;;;5461631;26;20279;-57
2024/04/10 12:45:39;;;;;;;3.13;1.23;;;16.40;76.50;;;;;;5462216;26;20534;-58
2024/04/10 12:48:06;;;;;;;3.42;1.27;;;16.50;75.40;;;;;;5456547;26;20269;-56
2024/04/10 12:50:34;;;;;;;8.23;1.52;;;16.70;74.50;;;;;;5456257;26;20284;-58
2024/04/10 12:53:00;;;;;;;4.20;1.55;;;17.00;74.70;;;;;;5459489;26;20234;-57
2024/04/10 12:55:29;;;;;;;5.68;1.50;;;17.30;74.00;;;;;;5462420;26;20271;-57